createdAt,value
2024-05-09T01:25:45.023Z,65.85
2024-05-09T01:28:16.535Z,65.56
2024-05-09T01:30:46.873Z,65.34
2024-05-09T01:33:20.303Z,65.91
2024-05-09T01:35:52.777Z,66.44
2024-05-09T01:38:22.896Z,65.86
2024-05-09T01:40:56.004Z,65.42
2024-05-09T01:43:26.097Z,65.51
2024-05-09T01:45:57.331Z,64.23
2024-05-09T01:48:28.763Z,64.60
2024-05-09T01:51:01.474Z,64.96
2024-05-09T01:53:33.646Z,65.03
2024-05-09T01:56:06.991Z,65.49
2024-05-09T01:58:37.072Z,66.29
2024-05-09T02:01:08.572Z,66.11
2024-05-09T02:03:38.779Z,65.89
2024-05-09T02:06:11.634Z,65.49
2024-05-09T02:08:41.817Z,65.66
2024-05-09T02:11:15.976Z,64.77
2024-05-09T02:13:47.280Z,63.90
2024-05-09T02:16:25.281Z,64.38
2024-05-09T02:18:55.581Z,63.20
2024-05-09T02:21:34.476Z,64.14
2024-05-09T02:24:04.444Z,64.01
2024-05-09T02:26:37.115Z,63.75
2024-05-09T02:29:07.083Z,63.91
2024-05-09T02:31:37.035Z,64.03
2024-05-09T02:34:07.022Z,64.57
2024-05-09T02:36:34.331Z,64.48
2024-05-09T02:39:04.410Z,64.18
2024-05-09T02:41:36.232Z,63.96
2024-05-09T02:44:09.394Z,64.64
2024-05-09T02:46:37.046Z,64.49
2024-05-09T02:49:07.517Z,63.95
2024-05-09T02:51:37.578Z,63.35
2024-05-09T02:54:10.859Z,63.74
2024-05-09T02:56:40.933Z,64.17
2024-05-09T02:59:13.349Z,64.36
2024-05-09T03:01:40.918Z,64.12
2024-05-09T03:04:18.453Z,65.00
2024-05-09T03:06:49.362Z,64.00
2024-05-09T03:09:20.612Z,63.69
2024-05-09T03:11:50.817Z,63.04
2024-05-09T03:14:29.772Z,63.29
2024-05-09T03:16:57.059Z,62.80
2024-05-09T03:19:27.222Z,62.40
2024-05-09T03:21:54.371Z,62.64
2024-05-09T03:24:24.284Z,62.64
2024-05-09T03:26:54.207Z,62.05
2024-05-09T03:29:24.474Z,62.46
2024-05-09T03:31:51.881Z,63.36
2024-05-09T03:34:21.978Z,63.24
2024-05-09T03:36:53.499Z,63.28
2024-05-09T03:39:27.292Z,64.22
2024-05-09T03:42:01.079Z,62.71
2024-05-09T04:37:21.465Z,64.08
2024-05-09T04:39:54.979Z,64.37
2024-05-09T04:42:22.164Z,64.29
2024-05-09T04:44:54.134Z,64.85
2024-05-09T04:47:22.845Z,64.82
2024-05-09T04:49:52.918Z,63.93
2024-05-09T04:52:20.011Z,63.90
2024-05-09T04:54:50.031Z,64.14
2024-05-09T04:57:19.753Z,63.56
2024-05-09T04:59:49.613Z,63.36
2024-05-09T05:02:16.977Z,63.07
2024-05-09T05:04:47.077Z,62.85
2024-05-09T05:07:14.683Z,63.03
2024-05-09T05:09:44.376Z,62.67
2024-05-09T05:12:26.425Z,62.26
2024-05-09T05:14:59.069Z,62.69
2024-05-09T05:17:26.220Z,62.55
2024-05-09T05:19:56.899Z,62.31
2024-05-09T05:22:26.983Z,62.79
2024-05-09T05:24:56.747Z,62.27
2024-05-09T05:27:23.871Z,62.64
2024-05-09T05:29:53.551Z,62.45
2024-05-09T05:32:23.405Z,63.65
2024-05-09T05:34:53.180Z,63.97
2024-05-09T06:03:35.485Z,65.15
2024-05-09T06:06:03.347Z,66.70
2024-05-09T06:08:35.902Z,68.53
2024-05-09T06:11:03.489Z,67.04
2024-05-09T06:13:33.505Z,65.53
2024-05-09T06:16:05.075Z,63.81
2024-05-09T06:18:37.874Z,64.42
2024-05-09T06:21:14.597Z,63.71
2024-05-09T06:23:48.665Z,63.90
2024-05-09T06:26:16.082Z,62.86
2024-05-09T06:28:45.911Z,61.15
2024-05-09T06:31:15.830Z,59.01
2024-05-09T06:33:50.546Z,59.35
2024-05-09T06:36:17.760Z,59.22
2024-05-09T06:38:49.160Z,57.96
2024-05-09T06:41:16.513Z,57.18
2024-05-09T06:43:46.621Z,55.77
2024-05-09T06:46:13.901Z,56.27
2024-05-09T06:48:45.483Z,56.95
2024-05-09T06:51:15.680Z,55.22
2024-05-09T06:53:45.678Z,53.68
2024-05-09T06:56:13.014Z,53.96
2024-05-09T06:58:42.979Z,53.62
2024-05-09T07:01:13.339Z,52.72
2024-05-09T07:03:47.046Z,52.42
2024-05-09T07:06:17.303Z,52.05
2024-05-09T07:08:48.683Z,53.08
2024-05-09T07:11:20.812Z,55.37
2024-05-09T07:13:50.887Z,53.78
2024-05-09T07:16:18.057Z,52.71
2024-05-09T07:18:49.846Z,50.48
2024-05-09T07:21:19.905Z,49.86
2024-05-09T07:23:50.106Z,49.60
2024-05-09T07:26:18.659Z,49.80
2024-05-09T07:28:48.837Z,47.81
2024-05-09T07:31:16.354Z,49.03
2024-05-09T07:33:46.283Z,48.62
2024-05-09T07:36:13.580Z,48.64
2024-05-09T07:38:46.214Z,48.88
2024-05-09T07:41:14.614Z,47.44
2024-05-09T07:43:44.693Z,46.21
2024-05-09T07:47:13.732Z,45.30
2024-05-09T07:53:14.354Z,49.69
2024-05-09T07:54:32.539Z,49.18
2024-05-09T07:57:00.111Z,47.57
2024-05-09T07:59:35.064Z,48.83
2024-05-09T08:02:05.006Z,47.58
2024-05-09T08:04:35.138Z,46.40
2024-05-09T08:07:02.554Z,46.72
2024-05-09T08:09:39.996Z,45.82
2024-05-09T08:12:12.935Z,44.99
2024-05-09T08:14:42.935Z,46.90
2024-05-09T08:17:12.103Z,44.38
2024-05-09T08:19:45.256Z,43.60
2024-05-09T08:22:15.917Z,43.02
2024-05-09T08:24:51.073Z,43.77
2024-05-09T08:27:18.289Z,42.00
2024-05-09T08:29:48.171Z,41.46
2024-05-09T08:32:17.182Z,40.38
2024-05-09T08:34:48.183Z,40.43
2024-05-09T08:37:21.506Z,40.11
2024-05-09T08:39:56.254Z,39.52
2024-05-09T08:42:24.208Z,38.60
2024-05-09T08:44:55.042Z,39.35
2024-05-09T08:47:22.489Z,39.84
2024-05-09T08:49:58.426Z,40.20
2024-05-09T08:52:25.765Z,39.66
2024-05-09T08:54:58.665Z,38.93
2024-05-09T08:57:27.727Z,38.40
2024-05-09T08:59:59.190Z,38.43
2024-05-09T09:02:27.837Z,38.68
2024-05-09T09:05:13.636Z,38.26
2024-05-09T09:07:48.414Z,37.61
2024-05-09T09:10:32.044Z,39.13
2024-05-09T09:13:04.736Z,36.96
2024-05-09T09:15:39.041Z,34.86
2024-05-09T09:18:14.217Z,35.42
2024-05-09T09:20:44.685Z,34.44
2024-05-09T09:23:16.306Z,33.96
2024-05-09T09:25:50.238Z,33.52
2024-05-09T09:28:17.739Z,35.13
2024-05-09T09:30:48.509Z,35.20
2024-05-09T09:41:50.989Z,33.16
2024-05-09T10:49:25.497Z,30.21
2024-05-09T13:34:20.122Z,20.08
2024-05-09T13:37:01.387Z,20.21
2024-05-09T13:39:39.969Z,19.35
2024-05-09T13:42:17.645Z,19.81
2024-05-09T13:45:21.271Z,19.70
2024-05-09T13:57:19.170Z,19.52
2024-05-09T14:04:29.649Z,21.21
2024-05-09T14:11:32.040Z,20.30
2024-05-09T14:24:58.201Z,20.21
2024-05-09T14:27:51.225Z,21.19
2024-05-09T16:51:34.310Z,27.82
2024-05-09T17:58:39.652Z,35.34
2024-05-09T18:01:35.796Z,35.88
2024-05-09T18:08:30.877Z,35.81
2024-05-09T19:13:42.282Z,40.06
2024-05-09T19:16:10.210Z,40.54
2024-05-09T19:18:40.447Z,41.20
2024-05-09T19:21:07.980Z,40.71
2024-05-09T19:23:46.817Z,40.90
2024-05-09T19:26:18.583Z,40.84
2024-05-09T19:28:54.502Z,41.13
2024-05-09T19:31:24.274Z,41.05
2024-05-09T19:33:56.055Z,41.52
2024-05-09T19:36:25.822Z,42.35
2024-05-09T19:38:55.976Z,42.82
2024-05-09T19:41:25.326Z,42.87
2024-05-09T19:44:00.280Z,43.72
2024-05-09T19:46:28.660Z,44.53
2024-05-09T19:48:58.931Z,45.64
2024-05-09T19:51:28.008Z,46.20
2024-05-09T19:54:01.083Z,46.01
2024-05-09T19:56:28.446Z,45.81
2024-05-09T19:59:01.215Z,45.58
2024-05-09T20:01:28.545Z,46.07
2024-05-09T20:03:59.541Z,45.63
2024-05-09T20:06:38.504Z,46.26
2024-05-09T20:09:08.472Z,45.74
2024-05-09T20:11:38.534Z,45.65
2024-05-09T20:14:11.279Z,45.92
2024-05-09T20:16:43.562Z,46.51
2024-05-09T20:19:13.504Z,46.52
2024-05-09T20:21:45.316Z,46.98
2024-05-09T20:24:15.218Z,47.39
2024-05-09T20:26:45.051Z,47.54
2024-05-09T20:29:21.097Z,48.61
2024-05-09T20:31:51.321Z,48.84
2024-05-09T20:34:23.595Z,48.89
2024-05-09T20:36:51.070Z,49.50
2024-05-09T20:39:21.546Z,49.00
2024-05-09T20:41:48.736Z,48.99
2024-05-09T20:44:21.795Z,49.07
2024-05-09T20:46:51.090Z,48.07
2024-05-09T20:49:22.423Z,47.55
2024-05-09T20:51:49.939Z,47.83
2024-05-09T20:54:20.098Z,47.16
2024-05-09T20:56:50.168Z,46.93
2024-05-09T20:59:22.803Z,48.32
2024-05-09T21:01:50.267Z,47.67
2024-05-09T21:04:20.382Z,48.67
2024-05-09T21:06:47.821Z,49.33
2024-05-09T21:09:17.659Z,50.57
2024-05-09T21:11:44.866Z,50.80
2024-05-09T21:14:14.831Z,50.56
2024-05-09T21:16:44.882Z,50.22
2024-05-09T21:19:14.973Z,50.38
2024-05-09T21:21:42.983Z,50.24
2024-05-09T21:24:12.974Z,49.73
2024-05-09T21:26:40.169Z,50.18
2024-05-09T21:29:10.136Z,50.36
2024-05-09T21:31:37.295Z,49.69
2024-05-09T22:35:04.248Z,54.40
2024-05-09T22:38:12.249Z,54.84
2024-05-09T22:41:50.579Z,54.15
2024-05-09T22:44:18.317Z,54.92
2024-05-09T22:46:48.382Z,54.10
2024-05-09T22:49:22.613Z,53.97
2024-05-09T22:51:52.866Z,54.89
2024-05-09T22:54:22.916Z,54.66
2024-05-09T22:56:50.098Z,53.90
2024-05-09T22:59:23.359Z,54.21
2024-05-09T23:01:50.870Z,54.82
2024-05-09T23:04:27.265Z,54.94
2024-05-09T23:06:59.986Z,54.52
2024-05-09T23:09:29.903Z,54.17
2024-05-09T23:12:00.216Z,54.70
2024-05-09T23:14:30.090Z,54.60
2024-05-09T23:16:59.734Z,55.16
2024-05-09T23:19:32.387Z,54.53
2024-05-09T23:21:59.788Z,54.78
2024-05-09T23:24:29.941Z,55.49
2024-05-09T23:26:57.525Z,55.57
2024-05-09T23:29:27.378Z,55.65
2024-05-09T23:31:54.802Z,55.53
2024-05-09T23:34:27.527Z,55.46
